createdAt,value
2022-10-31T00:01:24.992Z,68.07
2022-10-31T00:02:56.794Z,68.32
2022-10-31T00:04:28.618Z,68.46
2022-10-31T00:06:02.625Z,68.60
2022-10-31T00:07:34.255Z,68.67
2022-10-31T00:09:06.081Z,68.81
2022-10-31T00:10:39.010Z,68.86
2022-10-31T00:12:10.611Z,68.64
2022-10-31T00:13:42.374Z,68.61
2022-10-31T00:15:14.032Z,68.33
2022-10-31T00:16:45.650Z,68.39
2022-10-31T00:18:17.252Z,68.58
2022-10-31T00:19:48.870Z,68.73
2022-10-31T00:21:22.833Z,68.62
2022-10-31T00:22:54.482Z,68.65
2022-10-31T00:24:26.154Z,68.93
2022-10-31T00:26:01.641Z,68.97
2022-10-31T00:27:33.211Z,68.89
2022-10-31T00:29:05.089Z,69.05
2022-10-31T00:30:37.282Z,69.00
2022-10-31T00:32:08.898Z,69.06
2022-10-31T00:33:41.461Z,69.31
2022-10-31T00:35:13.211Z,69.36
2022-10-31T00:36:46.192Z,69.22
2022-10-31T00:38:18.755Z,69.22
2022-10-31T00:39:50.534Z,69.52
2022-10-31T00:41:22.217Z,69.58
2022-10-31T00:42:54.073Z,69.50
2022-10-31T00:44:25.723Z,69.64
2022-10-31T00:45:58.291Z,69.56
2022-10-31T00:47:30.027Z,69.54
2022-10-31T00:49:01.740Z,69.63
2022-10-31T00:50:33.382Z,69.71
2022-10-31T00:52:06.478Z,69.58
2022-10-31T00:53:38.651Z,69.95
2022-10-31T00:55:10.369Z,69.81
2022-10-31T00:56:42.219Z,69.87
2022-10-31T00:59:46.459Z,70.23
2022-10-31T01:01:18.175Z,70.54
2022-10-31T01:02:50.260Z,70.56
2022-10-31T01:04:22.005Z,70.46
2022-10-31T01:06:02.060Z,70.19
2022-10-31T01:07:38.295Z,70.30
2022-10-31T01:09:09.967Z,70.35
2022-10-31T01:10:41.587Z,70.30
2022-10-31T01:12:13.877Z,70.23
2022-10-31T01:13:46.527Z,70.13
2022-10-31T01:15:22.267Z,70.17
2022-10-31T01:16:53.897Z,69.95
2022-10-31T01:18:27.341Z,70.27
2022-10-31T01:19:58.947Z,70.00
2022-10-31T01:21:32.895Z,69.90
2022-10-31T01:23:05.824Z,70.06
2022-10-31T01:24:37.476Z,69.94
2022-10-31T01:26:11.393Z,70.34
2022-10-31T01:27:45.416Z,70.25
2022-10-31T01:29:17.060Z,70.29
2022-10-31T01:30:48.734Z,70.27
2022-10-31T01:32:20.432Z,70.41
2022-10-31T01:33:52.317Z,70.57
2022-10-31T01:35:23.988Z,70.56
2022-10-31T01:36:55.571Z,70.67
2022-10-31T01:38:29.200Z,70.86
2022-10-31T01:40:00.862Z,71.32
2022-10-31T01:41:35.557Z,71.55
2022-10-31T01:43:13.848Z,71.80
2022-10-31T01:44:52.514Z,71.62
2022-10-31T01:46:26.526Z,71.53
2022-10-31T01:47:58.495Z,71.85
2022-10-31T01:49:38.453Z,71.56
2022-10-31T01:51:13.509Z,71.48
2022-10-31T01:52:48.331Z,71.50
2022-10-31T01:54:24.936Z,71.29
2022-10-31T01:55:56.643Z,71.33
2022-10-31T01:57:29.821Z,71.58
2022-10-31T01:59:06.016Z,71.57
2022-10-31T02:00:39.801Z,71.38
2022-10-31T02:02:12.906Z,71.51
2022-10-31T02:03:47.102Z,71.50
2022-10-31T02:05:22.812Z,71.72
2022-10-31T02:06:57.432Z,71.62
2022-10-31T02:08:30.944Z,71.33
2022-10-31T02:10:05.339Z,71.68
2022-10-31T02:11:38.012Z,71.64
2022-10-31T02:13:10.114Z,71.41
2022-10-31T02:14:48.921Z,71.63
2022-10-31T02:16:20.550Z,72.08
2022-10-31T02:17:52.911Z,72.16
2022-10-31T02:19:33.987Z,72.06
2022-10-31T02:21:11.244Z,72.75
2022-10-31T02:23:03.235Z,72.05
2022-10-31T02:24:50.570Z,72.12
2022-10-31T02:26:44.358Z,72.00
2022-10-31T02:28:41.487Z,72.05
2022-10-31T02:30:17.016Z,72.05
2022-10-31T02:31:56.972Z,71.96
2022-10-31T02:33:36.130Z,71.87
2022-10-31T02:35:17.135Z,72.02
2022-10-31T02:36:55.268Z,71.76
2022-10-31T02:38:39.733Z,71.72
2022-10-31T02:40:22.867Z,71.62
2022-10-31T02:42:18.455Z,71.87
2022-10-31T02:44:00.198Z,72.07
2022-10-31T02:45:40.096Z,72.25
2022-10-31T02:47:17.399Z,71.93
2022-10-31T02:48:52.119Z,71.68
2022-10-31T02:50:29.481Z,71.95
2022-10-31T02:52:01.175Z,72.16
2022-10-31T02:53:34.735Z,72.21
2022-10-31T02:55:34.056Z,72.43
2022-10-31T02:57:09.089Z,72.44
2022-10-31T02:58:45.907Z,72.46
2022-10-31T03:00:19.250Z,72.28
2022-10-31T03:02:10.014Z,72.96
2022-10-31T03:03:59.031Z,72.95
2022-10-31T03:05:49.164Z,72.52
2022-10-31T03:07:30.022Z,72.82
2022-10-31T03:09:14.482Z,72.04
2022-10-31T03:10:52.735Z,72.65
2022-10-31T03:12:29.483Z,72.37
2022-10-31T03:14:10.159Z,72.77
2022-10-31T03:15:46.090Z,72.83
2022-10-31T03:17:24.920Z,72.59
2022-10-31T03:19:03.406Z,72.77
2022-10-31T03:20:39.121Z,72.67
2022-10-31T03:22:17.834Z,72.49
2022-10-31T03:23:52.471Z,72.37
2022-10-31T03:25:27.001Z,72.51
2022-10-31T03:27:02.946Z,72.85
2022-10-31T03:28:42.937Z,73.04
2022-10-31T03:30:16.176Z,72.93
2022-10-31T03:32:03.613Z,72.95
2022-10-31T03:33:38.064Z,72.54
2022-10-31T03:35:15.114Z,72.93
2022-10-31T03:36:50.343Z,72.78
2022-10-31T03:38:23.363Z,72.92
2022-10-31T03:39:58.081Z,73.00
2022-10-31T03:41:35.433Z,73.21
2022-10-31T03:43:11.570Z,73.00
2022-10-31T03:44:47.929Z,72.79
2022-10-31T03:46:19.797Z,72.62
2022-10-31T03:47:53.316Z,73.04
2022-10-31T03:49:25.137Z,73.17
2022-10-31T03:51:05.584Z,72.62
2022-10-31T03:52:44.367Z,72.71
2022-10-31T03:54:25.240Z,73.14
2022-10-31T03:56:01.880Z,72.92
2022-10-31T03:57:39.295Z,72.73
2022-10-31T03:59:19.047Z,73.22
2022-10-31T04:00:53.315Z,72.85
2022-10-31T04:02:31.012Z,73.39
2022-10-31T04:04:03.440Z,73.71
2022-10-31T04:05:36.386Z,73.74
2022-10-31T04:07:11.658Z,73.59
2022-10-31T04:08:49.434Z,73.58
2022-10-31T04:10:30.073Z,73.60
2022-10-31T04:12:09.671Z,73.71
2022-10-31T04:14:09.416Z,73.96
2022-10-31T04:15:44.367Z,73.61
2022-10-31T04:17:19.614Z,74.06
2022-10-31T04:18:51.588Z,73.38
2022-10-31T04:20:31.148Z,73.61
2022-10-31T04:22:02.854Z,73.68
2022-10-31T04:23:37.235Z,73.74
2022-10-31T04:25:22.543Z,74.14
2022-10-31T04:26:54.294Z,73.98
2022-10-31T04:28:28.504Z,73.66
2022-10-31T04:30:00.730Z,74.08
2022-10-31T04:31:33.408Z,74.26
2022-10-31T04:33:05.082Z,74.30
2022-10-31T04:34:37.069Z,74.22
2022-10-31T04:36:10.874Z,73.95
2022-10-31T04:37:42.749Z,74.05
2022-10-31T04:39:15.791Z,73.84
2022-10-31T04:40:54.547Z,73.93
2022-10-31T04:42:38.265Z,74.41
2022-10-31T04:44:12.589Z,74.45
2022-10-31T04:45:44.309Z,74.61
2022-10-31T04:47:16.565Z,74.90
2022-10-31T04:48:49.738Z,74.74
2022-10-31T04:50:22.178Z,74.96
2022-10-31T04:51:53.872Z,75.00
2022-10-31T04:53:25.511Z,74.78
2022-10-31T04:55:17.086Z,74.60
2022-10-31T04:57:08.736Z,74.44
2022-10-31T04:58:40.583Z,74.15
2022-10-31T05:00:16.179Z,74.49
2022-10-31T05:01:47.994Z,74.11
2022-10-31T05:03:19.912Z,73.91
2022-10-31T05:04:51.989Z,74.34
2022-10-31T05:06:24.163Z,74.05
2022-10-31T05:07:56.470Z,74.40
2022-10-31T05:09:30.588Z,74.41
2022-10-31T05:11:04.886Z,74.39
2022-10-31T05:12:37.267Z,74.80
2022-10-31T05:14:11.630Z,74.39
2022-10-31T05:16:15.885Z,74.40
2022-10-31T05:17:50.813Z,74.30
2022-10-31T05:19:41.302Z,74.17
2022-10-31T05:21:32.964Z,74.54
2022-10-31T05:23:07.312Z,74.13
2022-10-31T05:24:39.078Z,73.96
2022-10-31T05:26:12.132Z,74.16
2022-10-31T05:27:46.408Z,73.82
2022-10-31T05:29:18.093Z,73.76
2022-10-31T05:30:50.323Z,74.23
2022-10-31T05:32:22.024Z,74.20
2022-10-31T05:34:25.736Z,73.94
2022-10-31T05:36:16.223Z,73.91
2022-10-31T05:37:55.796Z,74.07
2022-10-31T05:39:27.547Z,73.79
2022-10-31T05:41:03.239Z,73.86
2022-10-31T05:42:41.134Z,73.61
2022-10-31T05:44:12.856Z,73.67
2022-10-31T05:45:57.523Z,73.77
2022-10-31T05:48:05.472Z,73.47
2022-10-31T05:50:00.124Z,73.84
2022-10-31T05:51:51.321Z,73.67
2022-10-31T05:53:24.170Z,73.88
2022-10-31T05:54:55.827Z,73.88
2022-10-31T05:56:27.552Z,73.86
2022-10-31T05:58:01.424Z,73.35
2022-10-31T05:59:33.992Z,73.47
2022-10-31T06:01:06.752Z,73.32
2022-10-31T06:02:38.587Z,73.45
2022-10-31T06:04:33.929Z,73.59
2022-10-31T06:06:06.170Z,73.19
2022-10-31T06:07:43.451Z,73.70
2022-10-31T06:09:15.140Z,73.19
2022-10-31T06:10:48.422Z,73.22
2022-10-31T06:12:24.521Z,73.50
2022-10-31T06:14:15.988Z,73.33
2022-10-31T06:15:55.813Z,72.93
2022-10-31T06:17:31.189Z,73.04
2022-10-31T06:19:41.441Z,73.40
2022-10-31T06:21:17.961Z,73.05
2022-10-31T06:22:51.338Z,73.28
2022-10-31T06:24:23.414Z,73.62
2022-10-31T06:26:15.430Z,73.54
2022-10-31T06:27:47.176Z,73.69
2022-10-31T06:29:21.669Z,73.39
2022-10-31T06:31:19.475Z,73.55
2022-10-31T06:32:51.135Z,73.55
2022-10-31T06:34:24.774Z,73.28
2022-10-31T06:35:56.412Z,73.53
2022-10-31T06:37:28.528Z,73.51
2022-10-31T06:39:06.754Z,73.68
2022-10-31T06:40:38.552Z,73.88
2022-10-31T06:42:21.913Z,73.92
2022-10-31T06:43:53.540Z,73.68
2022-10-31T06:45:52.447Z,73.92
2022-10-31T06:47:41.416Z,73.90
2022-10-31T06:49:22.544Z,73.84
2022-10-31T06:51:04.793Z,73.90
2022-10-31T06:52:37.389Z,74.33
2022-10-31T06:54:10.029Z,74.10
2022-10-31T06:55:43.691Z,74.31
2022-10-31T06:57:15.306Z,73.99
2022-10-31T06:58:46.963Z,74.27
2022-10-31T07:00:19.684Z,74.48
2022-10-31T07:01:55.716Z,74.48
2022-10-31T07:03:27.530Z,74.38
2022-10-31T07:04:59.190Z,74.67
2022-10-31T07:06:30.982Z,74.41
2022-10-31T07:08:04.389Z,74.53
2022-10-31T07:09:36.224Z,74.03
2022-10-31T07:11:09.616Z,74.34
2022-10-31T07:12:42.022Z,74.49
2022-10-31T07:14:14.315Z,74.14
2022-10-31T07:15:47.272Z,73.92
2022-10-31T07:17:20.228Z,73.95
2022-10-31T07:18:52.062Z,73.97
2022-10-31T07:20:23.778Z,74.07
2022-10-31T07:21:55.708Z,74.02
2022-10-31T07:23:29.353Z,74.01
2022-10-31T07:25:19.775Z,74.40
2022-10-31T07:27:10.029Z,74.36
2022-10-31T07:28:41.708Z,74.21
2022-10-31T07:30:14.697Z,74.14
2022-10-31T07:31:46.888Z,74.40
2022-10-31T07:33:29.617Z,74.03
2022-10-31T07:35:29.018Z,73.71
2022-10-31T07:37:04.063Z,74.01
2022-10-31T07:38:35.766Z,73.66
2022-10-31T07:40:11.038Z,73.31
2022-10-31T07:41:42.760Z,73.18
2022-10-31T07:43:14.964Z,73.68
2022-10-31T07:45:11.986Z,73.50
2022-10-31T07:47:09.632Z,73.27
2022-10-31T07:49:01.296Z,73.30
2022-10-31T07:50:51.420Z,73.13
2022-10-31T07:52:41.817Z,72.88
2022-10-31T07:54:36.453Z,72.98
2022-10-31T07:56:08.324Z,73.03
2022-10-31T07:57:40.032Z,73.31
2022-10-31T07:59:11.981Z,73.10
2022-10-31T08:00:45.558Z,73.21
2022-10-31T08:02:21.855Z,72.98
2022-10-31T08:03:53.502Z,72.95
2022-10-31T08:05:48.320Z,73.00
2022-10-31T08:07:39.515Z,73.00
2022-10-31T08:09:17.246Z,73.09
2022-10-31T08:10:49.939Z,72.47
2022-10-31T08:12:21.922Z,72.83
2022-10-31T08:13:53.574Z,72.63
2022-10-31T08:15:25.646Z,72.85
2022-10-31T08:16:57.284Z,72.51
2022-10-31T08:18:34.012Z,72.11
2022-10-31T08:20:06.976Z,71.81
2022-10-31T08:21:46.605Z,71.75
2022-10-31T08:23:18.307Z,71.62
2022-10-31T08:24:50.444Z,71.45
2022-10-31T08:26:22.615Z,71.21
2022-10-31T08:27:58.094Z,71.07
2022-10-31T08:29:30.346Z,71.26
2022-10-31T08:31:02.055Z,71.09
2022-10-31T08:33:04.885Z,70.92
2022-10-31T08:34:59.856Z,70.82
2022-10-31T08:36:51.347Z,70.95
2022-10-31T08:38:30.894Z,70.60
2022-10-31T08:40:02.641Z,70.65
2022-10-31T08:41:39.104Z,70.63
2022-10-31T08:43:16.625Z,70.40
2022-10-31T08:44:48.551Z,70.63
2022-10-31T08:46:20.367Z,70.47
2022-10-31T08:47:53.132Z,70.14
2022-10-31T08:49:24.992Z,70.03
2022-10-31T08:50:59.077Z,70.32
2022-10-31T08:52:58.925Z,70.46
2022-10-31T08:54:24.428Z,70.71
2022-10-31T08:56:01.984Z,70.54
2022-10-31T08:57:33.675Z,70.23
2022-10-31T08:59:05.307Z,70.37
2022-10-31T09:00:52.151Z,70.47
2022-10-31T09:02:25.941Z,70.39
2022-10-31T09:04:02.667Z,70.18
2022-10-31T09:05:35.008Z,69.64
2022-10-31T09:07:22.065Z,69.95
2022-10-31T09:08:55.316Z,69.53
2022-10-31T09:10:29.107Z,69.55
2022-10-31T09:12:00.724Z,69.47
2022-10-31T09:13:52.783Z,69.36
2022-10-31T09:15:39.286Z,69.17
2022-10-31T09:17:27.663Z,69.11
2022-10-31T09:19:19.259Z,68.98
2022-10-31T09:20:52.139Z,68.63
2022-10-31T09:22:23.918Z,68.72
2022-10-31T09:23:56.889Z,68.67
2022-10-31T09:25:29.492Z,68.57
2022-10-31T09:27:21.093Z,68.54
2022-10-31T09:28:53.564Z,68.06
2022-10-31T09:30:25.872Z,68.06
2022-10-31T09:31:57.691Z,67.91
2022-10-31T09:33:34.137Z,67.31
2022-10-31T09:35:26.244Z,67.21
2022-10-31T09:36:59.957Z,66.76
2022-10-31T09:38:32.322Z,66.58
2022-10-31T09:40:06.391Z,66.45
2022-10-31T09:42:04.794Z,65.63
2022-10-31T09:43:47.556Z,65.29
2022-10-31T09:45:28.173Z,65.25
2022-10-31T09:47:10.314Z,65.23
2022-10-31T09:49:00.218Z,64.97
2022-10-31T09:50:49.511Z,65.26
2022-10-31T09:53:05.405Z,65.20
2022-10-31T09:54:44.147Z,65.37
2022-10-31T09:56:19.911Z,65.32
2022-10-31T09:57:53.790Z,65.47
2022-10-31T09:59:31.179Z,65.32
2022-10-31T10:01:06.181Z,65.49
2022-10-31T10:02:44.245Z,65.48
2022-10-31T10:04:40.343Z,65.33
2022-10-31T10:06:34.801Z,65.14
2022-10-31T10:08:36.481Z,64.71
2022-10-31T10:10:47.076Z,64.20
2022-10-31T10:12:58.420Z,64.00
2022-10-31T10:14:43.335Z,63.88
2022-10-31T10:16:34.113Z,63.62
2022-10-31T10:18:17.353Z,63.79
2022-10-31T10:20:03.504Z,63.87
2022-10-31T10:21:45.764Z,63.93
2022-10-31T10:23:37.063Z,64.17
2022-10-31T10:25:22.896Z,64.18
2022-10-31T10:27:06.584Z,64.26
2022-10-31T10:28:42.894Z,63.85
2022-10-31T10:30:18.311Z,63.80
2022-10-31T10:31:52.546Z,63.64
2022-10-31T10:33:29.170Z,63.47
2022-10-31T10:35:18.488Z,63.46
2022-10-31T10:36:55.423Z,63.50
2022-10-31T10:38:37.461Z,63.46
2022-10-31T10:40:15.999Z,63.30
2022-10-31T10:42:08.365Z,63.25
2022-10-31T10:43:41.312Z,63.31
2022-10-31T10:45:36.934Z,63.38
2022-10-31T10:47:27.295Z,63.42
2022-10-31T10:49:05.656Z,63.45
2022-10-31T10:50:43.055Z,63.42
2022-10-31T10:52:40.867Z,63.38
2022-10-31T10:54:42.336Z,62.99
2022-10-31T10:56:18.702Z,63.21
2022-10-31T10:57:57.131Z,62.71
2022-10-31T10:59:31.414Z,62.53
2022-10-31T11:01:12.141Z,62.18
2022-10-31T11:02:46.522Z,62.11
2022-10-31T11:04:29.099Z,62.16
2022-10-31T11:06:02.398Z,62.18
2022-10-31T11:07:40.885Z,61.79
2022-10-31T11:09:12.741Z,61.77
2022-10-31T11:10:44.392Z,61.85
2022-10-31T11:12:21.929Z,61.14
2022-10-31T11:13:58.951Z,61.23
2022-10-31T11:15:34.897Z,60.32
2022-10-31T11:17:16.923Z,60.77
2022-10-31T11:18:48.930Z,60.73
2022-10-31T11:20:32.692Z,60.43
2022-10-31T11:22:09.151Z,60.57
2022-10-31T11:23:40.769Z,60.53
2022-10-31T11:25:22.721Z,60.35
2022-10-31T11:27:12.626Z,60.13
2022-10-31T11:28:44.975Z,60.46
2022-10-31T11:30:16.846Z,60.48
2022-10-31T11:31:52.704Z,60.40
2022-10-31T11:33:29.882Z,60.11
2022-10-31T11:35:10.047Z,60.06
2022-10-31T11:36:45.104Z,60.05
2022-10-31T11:38:21.119Z,60.04
2022-10-31T11:39:54.703Z,60.25
2022-10-31T11:41:29.249Z,60.31
2022-10-31T11:43:01.050Z,60.25
2022-10-31T11:44:33.611Z,60.16
2022-10-31T11:46:10.912Z,59.93
2022-10-31T11:47:48.776Z,60.03
2022-10-31T11:49:26.903Z,59.83
2022-10-31T11:50:59.578Z,59.84
2022-10-31T11:52:33.039Z,59.89
2022-10-31T11:54:05.794Z,59.76
2022-10-31T11:55:39.507Z,59.82
2022-10-31T11:57:24.277Z,59.36
2022-10-31T11:58:57.342Z,59.37
2022-10-31T12:00:30.915Z,59.23
2022-10-31T12:02:03.232Z,59.31
2022-10-31T12:03:49.287Z,58.86
2022-10-31T12:05:28.627Z,59.15
2022-10-31T12:07:00.549Z,59.12
2022-10-31T12:08:34.934Z,59.05
2022-10-31T12:10:11.789Z,59.13
2022-10-31T12:11:53.826Z,58.92
2022-10-31T12:13:34.990Z,58.62
2022-10-31T12:15:22.017Z,58.62
2022-10-31T12:17:00.166Z,58.50
2022-10-31T12:18:59.355Z,58.55
2022-10-31T12:20:42.604Z,58.61
2022-10-31T12:22:21.481Z,58.56
2022-10-31T12:24:06.491Z,58.21
2022-10-31T12:25:45.735Z,58.23
2022-10-31T12:27:29.851Z,58.24
2022-10-31T12:29:19.024Z,57.91
2022-10-31T12:31:04.226Z,57.26
2022-10-31T12:32:47.760Z,57.19
2022-10-31T12:34:50.558Z,56.23
2022-10-31T12:36:33.042Z,55.92
2022-10-31T12:38:21.637Z,55.82
2022-10-31T12:40:06.161Z,55.76
2022-10-31T12:41:47.274Z,55.62
2022-10-31T12:43:37.593Z,55.58
2022-10-31T12:45:24.571Z,55.65
2022-10-31T12:47:11.879Z,55.48
2022-10-31T12:49:18.942Z,54.91
2022-10-31T12:51:00.055Z,55.20
2022-10-31T12:52:45.840Z,55.55
2022-10-31T12:54:30.403Z,55.55
2022-10-31T12:56:15.239Z,55.92
2022-10-31T12:57:51.911Z,55.48
2022-10-31T12:59:30.675Z,55.13
2022-10-31T13:01:09.264Z,55.51
2022-10-31T13:02:46.224Z,55.66
2022-10-31T13:04:24.831Z,55.75
2022-10-31T13:06:04.297Z,55.58
2022-10-31T13:07:41.959Z,55.54
2022-10-31T13:09:18.878Z,55.35
2022-10-31T13:10:56.558Z,55.14
2022-10-31T13:12:32.141Z,55.46
2022-10-31T13:14:12.592Z,55.24
2022-10-31T13:15:50.266Z,54.82
2022-10-31T13:17:28.826Z,54.81
2022-10-31T13:19:06.554Z,54.79
2022-10-31T13:20:42.992Z,54.66
2022-10-31T13:22:19.785Z,54.67
2022-10-31T13:23:54.987Z,54.54
2022-10-31T13:25:33.237Z,54.80
2022-10-31T13:27:14.239Z,54.77
2022-10-31T13:30:30.087Z,54.89
2022-10-31T13:32:06.226Z,54.58
2022-10-31T13:33:43.556Z,54.55
2022-10-31T13:35:22.519Z,54.90
2022-10-31T13:37:03.944Z,54.89
2022-10-31T13:38:41.553Z,54.92
2022-10-31T13:40:25.577Z,55.16
2022-10-31T13:42:04.192Z,55.09
2022-10-31T13:43:56.316Z,54.34
2022-10-31T13:45:28.040Z,54.35
2022-10-31T13:46:59.716Z,54.39
2022-10-31T13:48:40.562Z,54.26
2022-10-31T13:50:24.282Z,53.95
2022-10-31T13:52:16.599Z,53.71
2022-10-31T13:54:00.524Z,53.81
2022-10-31T13:55:43.313Z,54.17
2022-10-31T13:57:19.288Z,54.19
2022-10-31T13:59:06.373Z,54.11
2022-10-31T14:00:38.108Z,54.38
2022-10-31T14:02:16.778Z,54.17
2022-10-31T14:04:18.082Z,54.13
2022-10-31T14:05:54.463Z,54.10
2022-10-31T14:07:27.439Z,53.82
2022-10-31T14:09:00.454Z,54.10
2022-10-31T14:10:34.353Z,54.12
2022-10-31T14:12:09.369Z,54.02
2022-10-31T14:13:46.030Z,54.10
2022-10-31T14:15:20.212Z,54.32
2022-10-31T14:16:57.625Z,54.18
2022-10-31T14:18:33.249Z,54.33
2022-10-31T14:20:26.100Z,53.95
2022-10-31T14:21:57.764Z,54.55
2022-10-31T14:23:45.462Z,54.31
2022-10-31T14:25:30.698Z,53.79
2022-10-31T14:27:04.692Z,54.21
2022-10-31T14:28:36.796Z,54.38
2022-10-31T14:30:15.716Z,54.18
2022-10-31T14:31:54.542Z,54.32
2022-10-31T14:33:28.377Z,54.32
2022-10-31T14:35:00.837Z,54.48
2022-10-31T14:36:44.014Z,54.25
2022-10-31T14:38:37.808Z,54.27
2022-10-31T14:40:27.101Z,54.30
2022-10-31T14:42:14.945Z,54.27
2022-10-31T14:44:04.792Z,54.38
2022-10-31T14:45:46.942Z,54.30
2022-10-31T14:47:28.384Z,54.27
2022-10-31T14:49:13.689Z,54.29
2022-10-31T14:50:50.198Z,54.35
2022-10-31T14:52:22.208Z,54.50
2022-10-31T14:53:56.113Z,54.36
2022-10-31T14:55:28.392Z,54.47
2022-10-31T14:57:05.156Z,54.65
2022-10-31T14:58:40.666Z,54.48
2022-10-31T15:00:18.418Z,54.31
2022-10-31T15:01:57.964Z,54.26
2022-10-31T15:03:33.441Z,54.69
2022-10-31T15:05:10.011Z,54.72
2022-10-31T15:06:44.635Z,54.70
2022-10-31T15:08:30.065Z,54.50
2022-10-31T15:10:03.668Z,54.86
2022-10-31T15:11:38.893Z,54.86
2022-10-31T15:13:18.716Z,54.97
2022-10-31T15:14:50.198Z,55.21
2022-10-31T15:16:23.896Z,55.24
2022-10-31T15:17:57.357Z,55.08
2022-10-31T15:19:31.671Z,55.18
2022-10-31T15:21:05.407Z,55.39
2022-10-31T15:22:39.198Z,55.48
2022-10-31T15:24:13.326Z,55.17
2022-10-31T15:25:45.455Z,55.34
2022-10-31T15:27:18.479Z,55.25
2022-10-31T15:29:01.177Z,55.41
2022-10-31T15:30:32.788Z,55.55
2022-10-31T15:32:20.312Z,55.26
2022-10-31T15:33:55.476Z,55.53
2022-10-31T15:35:29.251Z,55.40
2022-10-31T15:37:00.961Z,55.35
2022-10-31T15:38:33.740Z,55.62
2022-10-31T15:40:08.474Z,55.56
2022-10-31T15:41:54.209Z,55.52
2022-10-31T15:43:35.162Z,55.40
2022-10-31T15:45:19.397Z,55.56
2022-10-31T15:46:57.118Z,55.56
2022-10-31T15:48:32.684Z,55.72
2022-10-31T15:50:13.509Z,55.81
2022-10-31T15:51:47.303Z,55.72
2022-10-31T15:53:25.653Z,55.78
2022-10-31T15:55:01.702Z,55.71
2022-10-31T15:56:33.579Z,55.60
2022-10-31T15:58:12.704Z,55.57
2022-10-31T15:59:48.156Z,55.93
2022-10-31T16:01:23.655Z,55.83
2022-10-31T16:03:06.622Z,55.76
2022-10-31T16:04:38.482Z,55.72
2022-10-31T16:06:21.752Z,55.77
2022-10-31T16:07:53.435Z,55.64
2022-10-31T16:09:27.375Z,55.82
2022-10-31T16:11:03.959Z,55.86
2022-10-31T16:12:37.517Z,55.90
2022-10-31T16:14:23.184Z,55.61
2022-10-31T16:16:28.904Z,55.68
2022-10-31T16:17:55.719Z,55.57
2022-10-31T16:19:33.354Z,55.67
2022-10-31T16:21:06.779Z,55.43
2022-10-31T16:22:40.304Z,55.67
2022-10-31T16:24:19.338Z,55.78
2022-10-31T16:25:52.160Z,55.58
2022-10-31T16:27:29.276Z,56.05
2022-10-31T16:29:05.793Z,55.91
2022-10-31T16:30:42.807Z,56.11
2022-10-31T16:32:30.392Z,56.17
2022-10-31T16:34:15.059Z,56.18
2022-10-31T16:35:46.923Z,56.27
2022-10-31T16:37:18.567Z,56.35
2022-10-31T16:38:50.236Z,56.41
2022-10-31T16:40:22.086Z,56.32
2022-10-31T16:41:57.047Z,56.29
2022-10-31T16:43:28.681Z,56.50
2022-10-31T16:45:00.866Z,56.46
2022-10-31T16:46:32.626Z,56.50
2022-10-31T16:48:07.093Z,56.56
2022-10-31T16:49:40.178Z,56.45
2022-10-31T16:51:11.815Z,56.48
2022-10-31T16:53:08.391Z,56.69
2022-10-31T16:54:38.129Z,56.67
2022-10-31T16:56:16.636Z,56.36
2022-10-31T16:57:51.306Z,56.41
2022-10-31T16:59:22.923Z,56.61
2022-10-31T17:00:55.139Z,56.58
2022-10-31T17:02:28.300Z,56.66
2022-10-31T17:04:01.819Z,56.68
2022-10-31T17:05:35.405Z,56.54
2022-10-31T17:07:07.114Z,56.56
2022-10-31T17:08:38.784Z,56.47
2022-10-31T17:10:12.045Z,56.46
2022-10-31T17:11:49.381Z,56.65
2022-10-31T17:13:24.102Z,56.54
2022-10-31T17:14:56.349Z,56.54
2022-10-31T17:16:28.005Z,56.41
2022-10-31T17:17:59.989Z,56.43
2022-10-31T17:19:31.757Z,56.65
2022-10-31T17:21:06.179Z,56.52
2022-10-31T17:24:15.708Z,56.43
2022-10-31T17:25:47.405Z,56.50
2022-10-31T17:27:20.737Z,56.56
2022-10-31T17:28:53.898Z,56.59
2022-10-31T17:30:26.299Z,56.49
2022-10-31T17:31:58.010Z,56.65
2022-10-31T17:33:29.670Z,56.55
2022-10-31T17:35:01.350Z,56.67
2022-10-31T17:36:35.095Z,56.80
2022-10-31T17:38:06.779Z,56.49
2022-10-31T17:39:38.399Z,56.69
2022-10-31T17:41:11.456Z,56.90
2022-10-31T17:42:43.580Z,56.89
2022-10-31T17:44:15.274Z,56.96
2022-10-31T17:45:47.403Z,56.89
2022-10-31T17:47:19.091Z,57.02
2022-10-31T17:48:50.933Z,57.01
2022-10-31T17:50:25.127Z,57.09
2022-10-31T17:51:58.171Z,56.97
2022-10-31T17:53:30.932Z,57.28
2022-10-31T17:55:02.643Z,57.32
2022-10-31T17:56:34.241Z,57.27
2022-10-31T17:58:06.129Z,57.32
2022-10-31T17:59:37.792Z,57.38
2022-10-31T18:01:11.378Z,57.58
2022-10-31T18:02:43.489Z,57.56
2022-10-31T18:04:15.393Z,57.67
2022-10-31T18:05:52.194Z,57.74
2022-10-31T18:07:25.213Z,58.02
2022-10-31T18:08:58.102Z,57.88
2022-10-31T18:10:29.843Z,57.97
2022-10-31T18:12:01.479Z,58.03
2022-10-31T18:13:33.145Z,57.99
2022-10-31T18:15:05.550Z,58.09
2022-10-31T18:18:13.911Z,58.12
2022-10-31T18:19:45.858Z,58.26
2022-10-31T18:21:18.035Z,58.07
2022-10-31T18:22:51.011Z,58.25
2022-10-31T18:24:22.652Z,58.39
2022-10-31T18:25:55.065Z,58.44
2022-10-31T18:27:27.139Z,58.20
2022-10-31T18:28:58.865Z,58.28
2022-10-31T18:30:30.571Z,58.38
2022-10-31T18:32:06.763Z,58.31
2022-10-31T18:33:42.424Z,58.64
2022-10-31T18:35:14.179Z,58.57
2022-10-31T18:36:46.128Z,58.70
2022-10-31T18:38:19.860Z,58.73
2022-10-31T18:39:51.494Z,58.68
2022-10-31T18:41:23.359Z,58.60
2022-10-31T18:42:55.028Z,58.71
2022-10-31T18:44:27.885Z,58.70
2022-10-31T18:46:01.670Z,58.67
2022-10-31T18:47:33.702Z,58.71
2022-10-31T18:49:06.160Z,58.73
2022-10-31T18:50:39.845Z,58.73
2022-10-31T18:52:11.797Z,58.80
2022-10-31T18:53:51.156Z,58.76
2022-10-31T18:55:22.899Z,59.10
2022-10-31T18:56:55.916Z,59.04
2022-10-31T18:58:28.746Z,59.03
2022-10-31T19:00:00.383Z,59.18
2022-10-31T19:01:32.341Z,59.40
2022-10-31T19:03:05.324Z,59.60
2022-10-31T19:04:36.981Z,59.36
2022-10-31T19:06:09.938Z,59.46
2022-10-31T19:07:41.640Z,59.58
2022-10-31T19:09:14.998Z,59.57
2022-10-31T19:10:46.669Z,59.68
2022-10-31T19:12:18.326Z,59.54
2022-10-31T19:13:52.607Z,59.43
2022-10-31T19:15:24.420Z,59.51
2022-10-31T19:16:58.343Z,59.38
2022-10-31T19:18:33.170Z,59.27
2022-10-31T19:20:05.860Z,59.37
2022-10-31T19:21:37.561Z,59.34
2022-10-31T19:23:09.173Z,59.39
2022-10-31T19:24:42.262Z,59.55
2022-10-31T19:26:14.760Z,59.50
2022-10-31T19:27:46.432Z,59.51
2022-10-31T19:29:18.106Z,59.77
2022-10-31T19:30:54.312Z,59.67
2022-10-31T19:32:25.914Z,59.78
2022-10-31T19:33:57.535Z,59.90
2022-10-31T19:35:29.179Z,59.84
2022-10-31T19:37:00.850Z,59.93
2022-10-31T19:38:33.580Z,59.99
2022-10-31T19:40:09.033Z,60.00
2022-10-31T19:41:40.874Z,60.14
2022-10-31T19:43:12.627Z,60.23
2022-10-31T19:44:44.268Z,60.19
2022-10-31T19:46:27.728Z,60.27
2022-10-31T19:48:05.457Z,60.49
2022-10-31T19:49:38.211Z,60.51
2022-10-31T19:51:12.065Z,60.56
2022-10-31T19:52:43.742Z,60.92
2022-10-31T19:54:15.566Z,60.65
2022-10-31T19:55:48.648Z,61.06
2022-10-31T19:57:35.851Z,61.04
2022-10-31T19:59:12.012Z,61.11
2022-10-31T20:00:43.823Z,61.26
2022-10-31T20:02:19.764Z,61.22
2022-10-31T20:03:52.277Z,61.05
2022-10-31T20:05:24.022Z,61.18
2022-10-31T20:06:55.675Z,61.28
2022-10-31T20:08:28.629Z,61.28
2022-10-31T20:10:00.280Z,61.42
2022-10-31T20:11:36.541Z,61.22
2022-10-31T20:13:08.216Z,61.29
2022-10-31T20:14:39.930Z,61.40
2022-10-31T20:16:13.450Z,61.33
2022-10-31T20:17:45.814Z,61.45
2022-10-31T20:19:17.501Z,61.72
2022-10-31T20:20:49.395Z,61.59
2022-10-31T20:22:21.009Z,61.85
2022-10-31T20:23:55.115Z,61.94
2022-10-31T20:25:26.791Z,61.83
2022-10-31T20:26:59.874Z,61.87
2022-10-31T20:28:32.717Z,62.09
2022-10-31T20:30:07.012Z,62.33
2022-10-31T20:31:39.893Z,62.14
2022-10-31T20:33:11.599Z,62.41
2022-10-31T20:34:43.306Z,62.69
2022-10-31T20:36:15.094Z,62.41
2022-10-31T20:37:46.750Z,62.72
2022-10-31T20:39:18.557Z,62.60
2022-10-31T20:40:50.234Z,62.87
2022-10-31T20:42:23.795Z,62.93
2022-10-31T20:43:55.537Z,62.91
2022-10-31T20:45:27.595Z,62.95
2022-10-31T20:46:59.377Z,63.05
2022-10-31T20:48:31.656Z,63.10
2022-10-31T20:50:05.284Z,63.25
2022-10-31T20:51:36.950Z,63.29
2022-10-31T20:53:08.644Z,63.28
2022-10-31T20:54:40.290Z,63.14
2022-10-31T20:56:13.708Z,63.23
2022-10-31T20:57:47.099Z,63.24